createdAt,value
2023-03-15T00:00:25.388Z,99180.91
2023-03-15T00:00:57.090Z,99175.91
2023-03-15T00:01:28.752Z,99176.63
2023-03-15T00:02:01.085Z,99165.72
2023-03-15T00:02:32.953Z,99177.19
2023-03-15T00:03:05.641Z,99172.81
2023-03-15T00:03:37.668Z,99172.59
2023-03-15T00:04:09.387Z,99173.44
2023-03-15T00:04:41.888Z,99179.78
2023-03-15T00:05:13.670Z,99175.22
2023-03-15T00:05:48.168Z,99179.78
2023-03-15T00:06:19.820Z,99179.06
2023-03-15T00:06:51.495Z,99188.22
2023-03-15T00:07:25.911Z,99185.41
2023-03-15T00:07:58.689Z,99185.41
2023-03-15T00:08:33.236Z,99185.63
2023-03-15T00:09:05.146Z,99183.97
2023-03-15T00:09:36.784Z,99184.16
2023-03-15T00:10:08.920Z,99179.06
2023-03-15T00:10:45.696Z,99187.47
2023-03-15T00:11:18.611Z,99181.56
2023-03-15T00:11:51.913Z,99188.44
2023-03-15T00:12:23.590Z,99190.22
2023-03-15T00:12:55.618Z,99187.72
2023-03-15T00:13:27.458Z,99187.28
2023-03-15T00:13:59.281Z,99184.88
2023-03-15T00:14:31.730Z,99190.94
2023-03-15T00:15:03.582Z,99196.38
2023-03-15T00:15:35.418Z,99189.50
2023-03-15T00:16:07.822Z,99195.31
2023-03-15T00:16:39.496Z,99196.03
2023-03-15T00:17:11.877Z,99190.22
2023-03-15T00:17:45.036Z,99196.16
2023-03-15T00:18:18.956Z,99190.22
2023-03-15T00:18:50.864Z,99200.31
2023-03-15T00:19:22.528Z,99197.91
2023-03-15T00:19:54.223Z,99196.03
2023-03-15T00:20:25.918Z,99201.47
2023-03-15T00:20:58.507Z,99196.47
2023-03-15T00:21:30.340Z,99204.06
2023-03-15T00:22:02.047Z,99201.69
2023-03-15T00:22:33.761Z,99190.44
2023-03-15T00:23:05.432Z,99199.78
2023-03-15T00:23:37.114Z,99198.84
2023-03-15T00:24:11.230Z,99200.44
2023-03-15T00:24:43.782Z,99198.53
2023-03-15T00:25:15.588Z,99190.84
2023-03-15T00:25:48.535Z,99183.34
2023-03-15T00:26:20.285Z,99195.41
2023-03-15T00:26:51.925Z,99194.59
2023-03-15T00:27:23.598Z,99193.56
2023-03-15T00:27:55.395Z,99188.56
2023-03-15T00:28:27.126Z,99195.53
2023-03-15T00:28:58.830Z,99187.72
2023-03-15T00:29:30.492Z,99190.44
2023-03-15T00:30:02.177Z,99189.09
2023-03-15T00:30:34.162Z,99181.41
2023-03-15T00:31:09.586Z,99190.75
2023-03-15T00:31:41.345Z,99189.81
2023-03-15T00:32:13.089Z,99190.63
2023-03-15T00:32:44.809Z,99193.16
2023-03-15T00:33:17.058Z,99193.88
2023-03-15T00:33:50.078Z,99188.66
2023-03-15T00:34:25.958Z,99186.88
2023-03-15T00:34:57.613Z,99181.91
2023-03-15T00:35:29.222Z,99199.19
2023-03-15T00:36:07.165Z,99195.03
2023-03-15T00:36:38.925Z,99193.47
2023-03-15T00:37:11.516Z,99193.47
2023-03-15T00:37:43.192Z,99196.09
2023-03-15T00:38:14.879Z,99194.41
2023-03-15T00:38:46.592Z,99185.66
2023-03-15T00:39:18.626Z,99189.81
2023-03-15T00:39:50.445Z,99191.50
2023-03-15T00:40:23.259Z,99183.16
2023-03-15T00:40:54.885Z,99183.38
2023-03-15T00:41:26.841Z,99183.50
2023-03-15T00:41:58.543Z,99181.63
2023-03-15T00:42:30.244Z,99177.97
2023-03-15T00:43:01.858Z,99178.91
2023-03-15T00:43:33.885Z,99177.56
2023-03-15T00:44:05.581Z,99171.31
2023-03-15T00:44:37.246Z,99180.06
2023-03-15T00:45:10.581Z,99177.44
2023-03-15T00:45:45.194Z,99168.22
2023-03-15T00:46:18.214Z,99169.03
2023-03-15T00:46:50.270Z,99178.50
2023-03-15T00:47:21.971Z,99169.97
2023-03-15T00:47:55.174Z,99166.53
2023-03-15T00:48:26.893Z,99164.16
2023-03-15T00:48:58.588Z,99163.09
2023-03-15T00:49:30.378Z,99157.88
2023-03-15T00:50:01.988Z,99168.22
2023-03-15T00:50:33.647Z,99155.91
2023-03-15T00:51:08.652Z,99163.09
2023-03-15T00:51:40.322Z,99156.44
2023-03-15T00:52:12.639Z,99155.50
2023-03-15T00:52:44.635Z,99161.53
2023-03-15T00:53:16.269Z,99166.97
2023-03-15T00:53:49.433Z,99162.38
2023-03-15T00:54:23.777Z,99168.22
2023-03-15T00:54:56.290Z,99159.88
2023-03-15T00:55:28.436Z,99158.09
2023-03-15T00:56:09.114Z,99159.88
2023-03-15T00:56:41.474Z,99154.69
2023-03-15T00:57:13.145Z,99153.03
2023-03-15T00:57:46.782Z,99154.78
2023-03-15T00:58:18.796Z,99153.63
2023-03-15T00:58:52.904Z,99154.69
2023-03-15T00:59:24.599Z,99154.91
2023-03-15T00:59:56.259Z,99155.00
2023-03-15T01:00:27.904Z,99162.38
2023-03-15T01:01:00.784Z,99159.88
2023-03-15T01:01:32.480Z,99159.88
2023-03-15T01:02:06.240Z,99155.50
2023-03-15T01:02:38.011Z,99161.78
2023-03-15T01:03:09.773Z,99161.97
2023-03-15T01:03:42.440Z,99160.53
2023-03-15T01:04:14.092Z,99164.69
2023-03-15T01:04:45.735Z,99169.06
2023-03-15T01:05:17.780Z,99167.19
2023-03-15T01:05:49.526Z,99168.34
2023-03-15T01:06:23.916Z,99162.19
2023-03-15T01:06:55.608Z,99156.88
2023-03-15T01:07:27.255Z,99165.53
2023-03-15T01:07:58.927Z,99163.16
2023-03-15T01:08:31.430Z,99164.53
2023-03-15T01:09:03.503Z,99174.59
2023-03-15T01:09:35.498Z,99172.81
2023-03-15T01:10:08.185Z,99170.31
2023-03-15T01:10:39.836Z,99169.50
2023-03-15T01:11:15.104Z,99169.50
2023-03-15T01:11:46.745Z,99176.47
2023-03-15T01:12:18.477Z,99172.81
2023-03-15T01:12:50.140Z,99173.56
2023-03-15T01:13:21.805Z,99175.41
2023-03-15T01:13:55.386Z,99171.16
2023-03-15T01:14:27.001Z,99175.53
2023-03-15T01:14:59.314Z,99169.59
2023-03-15T01:15:30.952Z,99173.03
2023-03-15T01:16:03.486Z,99168.06
2023-03-15T01:16:35.208Z,99162.75
2023-03-15T01:17:06.850Z,99168.78
2023-03-15T01:17:38.876Z,99168.78
2023-03-15T01:18:10.521Z,99167.94
2023-03-15T01:18:42.859Z,99165.34
2023-03-15T01:19:14.883Z,99167.84
2023-03-15T01:19:46.611Z,99165.22
2023-03-15T01:20:18.408Z,99161.09
2023-03-15T01:20:50.119Z,99170.75
2023-03-15T01:21:23.738Z,99164.00
2023-03-15T01:21:55.368Z,99164.72
2023-03-15T01:22:27.293Z,99161.28
2023-03-15T01:22:58.924Z,99163.88
2023-03-15T01:23:30.587Z,99163.06
2023-03-15T01:24:02.223Z,99156.31
2023-03-15T01:24:33.927Z,99156.91
2023-03-15T01:25:06.174Z,99148.38
2023-03-15T01:25:37.848Z,99157.25
2023-03-15T01:26:12.979Z,99154.75
2023-03-15T01:26:44.725Z,99148.59
2023-03-15T01:27:16.447Z,99138.31
2023-03-15T01:27:48.165Z,99154.75
2023-03-15T01:28:19.899Z,99152.75
2023-03-15T01:28:51.631Z,99152.97
2023-03-15T01:29:23.281Z,99140.81
2023-03-15T01:29:55.280Z,99142.66
2023-03-15T01:30:26.907Z,99149.44
2023-03-15T01:31:00.128Z,99152.16
2023-03-15T01:31:32.102Z,99145.19
2023-03-15T01:32:03.903Z,99149.31
2023-03-15T01:32:35.736Z,99139.97
2023-03-15T01:33:07.482Z,99139.97
2023-03-15T01:33:39.179Z,99152.88
2023-03-15T01:34:10.843Z,99151.09
2023-03-15T01:34:43.535Z,99146.13
2023-03-15T01:35:15.216Z,99151.22
2023-03-15T01:35:47.621Z,99153.81
2023-03-15T01:36:19.527Z,99145.06
2023-03-15T01:36:52.648Z,99153.69
2023-03-15T01:37:24.765Z,99152.16
2023-03-15T01:37:56.445Z,99141.75
2023-03-15T01:38:28.417Z,99156.31
2023-03-15T01:39:00.032Z,99151.22
2023-03-15T01:39:31.843Z,99148.72
2023-03-15T01:40:06.561Z,99152.97
2023-03-15T01:40:42.911Z,99149.75
2023-03-15T01:41:15.401Z,99148.91
2023-03-15T01:41:47.056Z,99139.56
2023-03-15T01:42:18.944Z,99139.34
2023-03-15T01:43:05.250Z,99149.97
2023-03-15T01:43:36.917Z,99147.38
2023-03-15T01:44:17.012Z,99139.75
2023-03-15T01:45:02.241Z,99151.88
2023-03-15T01:45:57.204Z,99153.59
2023-03-15T01:46:34.788Z,99153.41
2023-03-15T01:47:06.745Z,99147.50
2023-03-15T01:47:38.386Z,99152.59
2023-03-15T01:48:10.050Z,99154.47
2023-03-15T01:48:52.171Z,99156.19
2023-03-15T01:49:29.291Z,99157.25
2023-03-15T01:50:11.610Z,99153.59
2023-03-15T01:50:44.586Z,99158.63
2023-03-15T01:51:35.301Z,99146.34
2023-03-15T01:52:21.419Z,99155.81
2023-03-15T01:52:53.539Z,99153.94
2023-03-15T01:53:29.676Z,99145.41
2023-03-15T01:54:05.757Z,99150.41
2023-03-15T01:54:45.389Z,99148.75
2023-03-15T01:55:20.814Z,99148.09
2023-03-15T01:55:54.604Z,99150.00
2023-03-15T01:56:29.502Z,99156.97
2023-03-15T01:57:10.717Z,99150.81
2023-03-15T01:57:49.819Z,99156.03
2023-03-15T01:58:26.684Z,99155.19
2023-03-15T01:59:01.580Z,99149.16
2023-03-15T01:59:41.935Z,99151.16
2023-03-15T02:00:18.566Z,99152.47
2023-03-15T02:00:53.121Z,99148.09
2023-03-15T02:01:25.598Z,99154.38
2023-03-15T02:01:58.821Z,99144.91
2023-03-15T02:02:31.486Z,99154.59
2023-03-15T02:03:14.506Z,99148.34
2023-03-15T02:03:49.640Z,99154.59
2023-03-15T02:04:28.791Z,99161.66
2023-03-15T02:05:11.245Z,99167.91
2023-03-15T02:05:54.700Z,99164.34
2023-03-15T02:06:26.744Z,99161.88
2023-03-15T02:07:03.240Z,99161.66
2023-03-15T02:07:35.079Z,99160.09
2023-03-15T02:08:09.186Z,99163.63
2023-03-15T02:08:51.013Z,99172.16
2023-03-15T02:09:22.661Z,99166.34
2023-03-15T02:10:02.466Z,99171.22
2023-03-15T02:10:48.084Z,99177.25
2023-03-15T02:11:24.235Z,99166.25
2023-03-15T02:11:57.808Z,99175.81
2023-03-15T02:12:33.591Z,99171.44
2023-03-15T02:13:07.286Z,99164.59
2023-03-15T02:13:39.116Z,99174.75
2023-03-15T02:14:13.499Z,99176.84
2023-03-15T02:14:46.072Z,99171.84
2023-03-15T02:15:17.831Z,99176.22
2023-03-15T02:15:50.496Z,99178.13
2023-03-15T02:16:24.876Z,99177.38
2023-03-15T02:16:56.557Z,99178.72
2023-03-15T02:17:43.494Z,99188.28
2023-03-15T02:18:16.838Z,99181.22
2023-03-15T02:18:48.585Z,99182.16
2023-03-15T02:19:36.847Z,99185.81
2023-03-15T02:20:47.143Z,99192.56
2023-03-15T02:21:21.611Z,99189.25
2023-03-15T02:22:22.475Z,99190.28
2023-03-15T02:22:56.365Z,99189.47
2023-03-15T02:23:29.116Z,99192.25
2023-03-15T02:24:33.002Z,99183.72
2023-03-15T02:25:20.056Z,99193.84
2023-03-15T02:26:06.970Z,99185.16
2023-03-15T02:26:54.158Z,99188.28
2023-03-15T02:27:31.926Z,99194.56
2023-03-15T02:28:06.393Z,99195.16
2023-03-15T02:28:39.250Z,99187.88
2023-03-15T02:29:11.864Z,99190.47
2023-03-15T02:29:43.594Z,99186.84
2023-03-15T02:30:15.463Z,99191.84
2023-03-15T02:30:48.524Z,99190.91
2023-03-15T02:31:21.997Z,99193.50
2023-03-15T02:31:54.907Z,99190.91
2023-03-15T02:32:27.204Z,99187.69
2023-03-15T02:33:03.580Z,99187.34
2023-03-15T02:33:41.948Z,99191.00
2023-03-15T02:34:13.616Z,99188.41
2023-03-15T02:34:45.265Z,99192.66
2023-03-15T02:35:29.057Z,99188.53
2023-03-15T02:36:15.216Z,99187.03
2023-03-15T02:36:46.870Z,99192.34
2023-03-15T02:37:18.582Z,99186.22
2023-03-15T02:37:50.941Z,99186.31
2023-03-15T02:38:23.441Z,99187.78
2023-03-15T02:38:56.972Z,99188.00
2023-03-15T02:39:28.626Z,99185.59
2023-03-15T02:40:00.308Z,99185.78
2023-03-15T02:40:32.142Z,99178.94
2023-03-15T02:41:05.062Z,99183.09
2023-03-15T02:41:39.123Z,99183.59
2023-03-15T02:42:11.122Z,99184.97
2023-03-15T02:42:43.182Z,99186.44
2023-03-15T02:43:24.752Z,99183.09
2023-03-15T02:44:06.577Z,99185.78
2023-03-15T02:44:43.008Z,99187.78
2023-03-15T02:45:14.960Z,99182.69
2023-03-15T02:45:47.938Z,99186.03
2023-03-15T02:46:20.271Z,99184.25
2023-03-15T02:46:56.541Z,99178.31
2023-03-15T02:47:33.454Z,99177.69
2023-03-15T02:48:06.707Z,99186.31
2023-03-15T02:48:41.167Z,99186.13
2023-03-15T02:49:17.019Z,99189.75
2023-03-15T02:49:53.898Z,99187.06
2023-03-15T02:50:25.690Z,99184.13
2023-03-15T02:50:57.338Z,99186.97
2023-03-15T02:51:30.280Z,99200.78
2023-03-15T02:52:01.902Z,99187.56
2023-03-15T02:52:33.862Z,99184.34
2023-03-15T02:53:06.012Z,99192.66
2023-03-15T02:53:37.641Z,99189.34
2023-03-15T02:54:09.254Z,99187.91
2023-03-15T02:54:43.460Z,99190.38
2023-03-15T02:55:15.282Z,99193.81
2023-03-15T02:55:46.932Z,99198.28
2023-03-15T02:56:18.720Z,99196.53
2023-03-15T02:56:51.459Z,99193.09
2023-03-15T02:57:23.163Z,99199.97
2023-03-15T02:57:54.846Z,99194.75
2023-03-15T02:58:26.695Z,99197.47
2023-03-15T02:58:58.342Z,99198.09
2023-03-15T02:59:29.979Z,99193.19
2023-03-15T03:00:12.369Z,99205.16
2023-03-15T03:00:43.997Z,99203.28
2023-03-15T03:01:16.997Z,99198.28
2023-03-15T03:01:48.787Z,99194.66
2023-03-15T03:02:21.379Z,99207.75
2023-03-15T03:02:53.050Z,99204.22
2023-03-15T03:03:24.729Z,99201.41
2023-03-15T03:03:56.405Z,99205.78
2023-03-15T03:04:28.512Z,99204.00
2023-03-15T03:05:00.309Z,99204.31
2023-03-15T03:05:31.944Z,99194.34
2023-03-15T03:06:03.712Z,99201.63
2023-03-15T03:06:35.425Z,99200.91
2023-03-15T03:07:07.556Z,99204.41
2023-03-15T03:07:39.608Z,99209.41
2023-03-15T03:08:11.256Z,99195.59
2023-03-15T03:08:47.017Z,99212.03
2023-03-15T03:09:18.851Z,99206.94
2023-03-15T03:09:50.536Z,99209.41
2023-03-15T03:10:22.344Z,99200.78
2023-03-15T03:10:54.068Z,99206.09
2023-03-15T03:11:25.718Z,99191.94
2023-03-15T03:11:57.407Z,99199.13
2023-03-15T03:12:29.097Z,99201.72
2023-03-15T03:13:00.783Z,99205.16
2023-03-15T03:13:32.779Z,99216.38
2023-03-15T03:14:05.658Z,99202.44
2023-03-15T03:14:37.329Z,99204.94
2023-03-15T03:15:10.540Z,99201.63
2023-03-15T03:15:45.544Z,99203.81
2023-03-15T03:16:17.239Z,99199.56
2023-03-15T03:16:48.927Z,99199.97
2023-03-15T03:17:20.738Z,99200.78
2023-03-15T03:17:52.405Z,99202.66
2023-03-15T03:18:28.287Z,99201.50
2023-03-15T03:19:00.615Z,99192.88
2023-03-15T03:19:32.282Z,99200.16
2023-03-15T03:20:13.844Z,99204.50
2023-03-15T03:20:46.124Z,99201.81
2023-03-15T03:21:17.797Z,99190.50
2023-03-15T03:21:49.471Z,99205.34
2023-03-15T03:22:24.523Z,99197.34
2023-03-15T03:22:56.190Z,99191.50
2023-03-15T03:23:28.176Z,99195.59
2023-03-15T03:23:59.829Z,99197.34
2023-03-15T03:24:31.674Z,99194.13
2023-03-15T03:25:04.461Z,99187.16
2023-03-15T03:25:36.783Z,99184.34
2023-03-15T03:26:16.906Z,99194.94
2023-03-15T03:26:48.842Z,99185.38
2023-03-15T03:27:21.479Z,99187.06
2023-03-15T03:27:57.117Z,99182.69
2023-03-15T03:28:31.976Z,99196.59
2023-03-15T03:29:07.995Z,99191.41
2023-03-15T03:29:39.620Z,99192.16
2023-03-15T03:30:13.261Z,99186.97
2023-03-15T03:30:45.016Z,99186.19
2023-03-15T03:31:25.815Z,99175.09
2023-03-15T03:31:57.484Z,99191.72
2023-03-15T03:32:29.171Z,99185.69
2023-03-15T03:33:00.848Z,99182.06
2023-03-15T03:33:32.594Z,99179.56
2023-03-15T03:34:04.228Z,99186.31
2023-03-15T03:34:36.786Z,99192.16
2023-03-15T03:35:09.185Z,99182.69
2023-03-15T03:35:41.933Z,99190.78
2023-03-15T03:36:14.220Z,99190.56
2023-03-15T03:36:45.907Z,99188.91
2023-03-15T03:37:19.062Z,99184.53
2023-03-15T03:37:53.851Z,99187.16
2023-03-15T03:38:25.479Z,99181.13
2023-03-15T03:38:57.226Z,99180.41
2023-03-15T03:39:28.854Z,99184.53
2023-03-15T03:40:00.568Z,99186.19
2023-03-15T03:40:32.727Z,99189.13
2023-03-15T03:41:04.557Z,99191.63
2023-03-15T03:41:36.524Z,99186.31
2023-03-15T03:42:08.419Z,99183.59
2023-03-15T03:42:40.084Z,99186.97
2023-03-15T03:43:11.730Z,99184.66
2023-03-15T03:43:43.403Z,99192.25
2023-03-15T03:44:15.098Z,99182.06
2023-03-15T03:44:46.752Z,99182.06
2023-03-15T03:45:18.387Z,99186.31
2023-03-15T03:45:50.122Z,99189.75
2023-03-15T03:46:21.831Z,99185.47
2023-03-15T03:46:53.506Z,99186.53
2023-03-15T03:47:25.154Z,99182.88
2023-03-15T03:47:56.826Z,99179.56
2023-03-15T03:48:28.529Z,99188.09
2023-03-15T03:49:00.301Z,99182.16
2023-03-15T03:49:32.136Z,99178.00
2023-03-15T03:50:04.137Z,99183.09
2023-03-15T03:50:36.058Z,99178.09
2023-03-15T03:51:07.721Z,99174.59
2023-03-15T03:51:39.353Z,99178.91
2023-03-15T03:52:11.150Z,99192.78
2023-03-15T03:52:43.919Z,99192.84
2023-03-15T03:53:15.618Z,99191.84
2023-03-15T03:53:47.272Z,99177.19
2023-03-15T03:54:21.435Z,99186.66
2023-03-15T03:54:53.063Z,99185.59
2023-03-15T03:55:25.510Z,99183.94
2023-03-15T03:55:57.207Z,99182.38
2023-03-15T03:56:28.852Z,99184.97
2023-03-15T03:57:00.570Z,99194.44
2023-03-15T03:57:32.189Z,99203.06
2023-03-15T03:58:03.860Z,99192.03
2023-03-15T03:58:35.502Z,99193.91
2023-03-15T03:59:07.190Z,99201.72
2023-03-15T03:59:38.824Z,99200.16
2023-03-15T04:00:14.466Z,99196.72
2023-03-15T04:00:46.252Z,99199.31
2023-03-15T04:01:17.871Z,99189.94
2023-03-15T04:01:49.530Z,99193.59
2023-03-15T04:02:21.549Z,99199.72
2023-03-15T04:02:54.312Z,99207.41
2023-03-15T04:03:29.128Z,99210.13
2023-03-15T04:04:00.782Z,99211.78
2023-03-15T04:04:32.446Z,99207.63
2023-03-15T04:05:04.561Z,99209.28
2023-03-15T04:05:36.328Z,99204.16
2023-03-15T04:06:08.308Z,99212.06
2023-03-15T04:06:46.337Z,99210.31
2023-03-15T04:07:18.024Z,99213.31
2023-03-15T04:07:49.666Z,99221.09
2023-03-15T04:08:22.117Z,99215.69
2023-03-15T04:08:53.756Z,99223.59
2023-03-15T04:09:25.521Z,99221.94
2023-03-15T04:09:57.166Z,99226.38
2023-03-15T04:10:28.822Z,99220.47
2023-03-15T04:11:04.064Z,99231.56
2023-03-15T04:11:36.251Z,99224.59
2023-03-15T04:12:08.173Z,99227.22
2023-03-15T04:12:39.949Z,99228.16
2023-03-15T04:13:11.619Z,99238.94
2023-03-15T04:13:45.383Z,99237.28
2023-03-15T04:14:17.065Z,99239.16
2023-03-15T04:14:48.739Z,99244.25
2023-03-15T04:15:24.307Z,99237.38
2023-03-15T04:16:01.340Z,99249.81
2023-03-15T04:16:33.043Z,99240.78
2023-03-15T04:17:04.879Z,99249.94
2023-03-15T04:17:36.590Z,99243.28
2023-03-15T04:18:08.340Z,99237.03
2023-03-15T04:18:40.313Z,99242.63
2023-03-15T04:19:12.953Z,99246.81
2023-03-15T04:19:47.530Z,99248.59
2023-03-15T04:20:20.425Z,99243.66
2023-03-15T04:20:54.885Z,99241.69
2023-03-15T04:21:26.655Z,99251.81
2023-03-15T04:21:58.313Z,99249.59
2023-03-15T04:22:29.963Z,99254.06
2023-03-15T04:23:01.787Z,99251.66
2023-03-15T04:23:34.606Z,99246.44
2023-03-15T04:24:07.508Z,99257.16
2023-03-15T04:24:39.920Z,99255.50
2023-03-15T04:25:11.599Z,99258.72
2023-03-15T04:25:43.264Z,99253.50
2023-03-15T04:26:15.076Z,99258.19
2023-03-15T04:26:46.738Z,99253.63
2023-03-15T04:27:18.446Z,99253.50
2023-03-15T04:27:58.844Z,99249.97
2023-03-15T04:28:30.604Z,99252.78
2023-03-15T04:29:02.292Z,99250.09
2023-03-15T04:29:34.071Z,99261.31
2023-03-15T04:30:06.247Z,99253.63
2023-03-15T04:30:38.336Z,99253.72
2023-03-15T04:31:14.636Z,99259.03
2023-03-15T04:31:46.381Z,99266.16
2023-03-15T04:32:18.146Z,99258.69
2023-03-15T04:32:49.843Z,99268.19
2023-03-15T04:33:24.563Z,99269.53
2023-03-15T04:33:56.692Z,99267.69
2023-03-15T04:34:30.180Z,99266.94
2023-03-15T04:35:02.180Z,99268.63
2023-03-15T04:35:37.645Z,99262.47
2023-03-15T04:36:09.539Z,99267.13
2023-03-15T04:36:42.695Z,99271.59
2023-03-15T04:37:14.371Z,99276.78
2023-03-15T04:37:46.364Z,99269.38
2023-03-15T04:38:18.669Z,99276.88
2023-03-15T04:38:51.017Z,99275.75
2023-03-15T04:39:23.411Z,99271.13
2023-03-15T04:39:55.069Z,99282.63
2023-03-15T04:40:27.233Z,99276.53
2023-03-15T04:40:58.845Z,99273.16
2023-03-15T04:41:30.649Z,99271.34
2023-03-15T04:42:02.417Z,99279.19
2023-03-15T04:42:34.360Z,99277.34
2023-03-15T04:43:06.210Z,99275.13
2023-03-15T04:43:37.901Z,99278.38
2023-03-15T04:44:09.522Z,99282.63
2023-03-15T04:44:41.189Z,99283.66
2023-03-15T04:45:12.829Z,99284.97
2023-03-15T04:45:44.509Z,99288.50
2023-03-15T04:46:16.150Z,99290.16
2023-03-15T04:46:47.874Z,99300.16
2023-03-15T04:47:20.698Z,99289.69
2023-03-15T04:47:53.299Z,99294.63
2023-03-15T04:48:24.961Z,99288.69
2023-03-15T04:48:56.671Z,99295.72
2023-03-15T04:49:28.400Z,99294.78
2023-03-15T04:50:00.115Z,99297.47
2023-03-15T04:50:31.734Z,99299.97
2023-03-15T04:51:03.709Z,99305.09
2023-03-15T04:51:35.698Z,99305.09
2023-03-15T04:52:07.353Z,99301.75
2023-03-15T04:52:39.312Z,99299.06
2023-03-15T04:53:11.002Z,99299.81
2023-03-15T04:53:42.687Z,99300.63
2023-03-15T04:54:14.339Z,99298.97
2023-03-15T04:54:45.999Z,99306.75
2023-03-15T04:55:17.719Z,99304.78
2023-03-15T04:55:49.405Z,99296.66
2023-03-15T04:56:21.141Z,99296.84
2023-03-15T04:56:52.800Z,99301.84
2023-03-15T04:57:24.451Z,99303.69
2023-03-15T04:57:56.780Z,99298.50
2023-03-15T04:58:28.416Z,99301.00
2023-03-15T04:59:00.106Z,99298.31
2023-03-15T04:59:31.731Z,99305.56
2023-03-15T05:00:07.806Z,99306.75
2023-03-15T05:00:39.522Z,99305.09
2023-03-15T05:01:11.994Z,99295.53
2023-03-15T05:01:43.761Z,99303.50
2023-03-15T05:02:16.294Z,99301.00
2023-03-15T05:02:54.738Z,99297.22
2023-03-15T05:03:26.411Z,99298.13
2023-03-15T05:03:58.498Z,99304.25
2023-03-15T05:04:30.148Z,99304.53
2023-03-15T05:05:01.823Z,99311.38
2023-03-15T05:05:34.071Z,99302.66
2023-03-15T05:06:08.209Z,99306.03
2023-03-15T05:06:40.059Z,99305.19
2023-03-15T05:07:11.702Z,99299.53
2023-03-15T05:07:43.398Z,99306.28
2023-03-15T05:08:15.112Z,99301.28
2023-03-15T05:08:47.082Z,99307.41
2023-03-15T05:09:19.314Z,99304.06
2023-03-15T05:09:51.219Z,99304.41
2023-03-15T05:10:22.909Z,99308.72
2023-03-15T05:10:55.058Z,99309.69
2023-03-15T05:11:26.787Z,99310.72
2023-03-15T05:11:58.444Z,99308.31
2023-03-15T05:12:30.537Z,99299.41
2023-03-15T05:13:02.241Z,99305.53
2023-03-15T05:13:33.863Z,99311.81
2023-03-15T05:14:05.522Z,99309.41
2023-03-15T05:14:37.220Z,99305.31
2023-03-15T05:15:09.709Z,99307.38
2023-03-15T05:15:41.444Z,99304.44
2023-03-15T05:16:13.152Z,99304.69
2023-03-15T05:16:44.854Z,99304.88
2023-03-15T05:17:16.523Z,99304.22
2023-03-15T05:17:48.891Z,99308.38
2023-03-15T05:18:21.974Z,99306.81
2023-03-15T05:18:54.040Z,99314.78
2023-03-15T05:19:26.422Z,99311.41
2023-03-15T05:19:58.091Z,99311.50
2023-03-15T05:20:29.726Z,99304.75
2023-03-15T05:21:01.370Z,99306.66
2023-03-15T05:21:33.025Z,99305.84
2023-03-15T05:22:04.776Z,99302.31
2023-03-15T05:22:36.939Z,99309.25
2023-03-15T05:23:08.619Z,99306.13
2023-03-15T05:23:40.484Z,99296.69
2023-03-15T05:24:12.511Z,99301.09
2023-03-15T05:24:44.779Z,99301.94
2023-03-15T05:25:16.629Z,99296.09
2023-03-15T05:25:55.614Z,99296.94
2023-03-15T05:26:27.285Z,99304.63
2023-03-15T05:26:58.919Z,99291.25
2023-03-15T05:27:32.674Z,99303.31
2023-03-15T05:28:05.004Z,99297.13
2023-03-15T05:28:36.684Z,99295.44
2023-03-15T05:29:08.317Z,99304.31
2023-03-15T05:29:40.066Z,99295.81
2023-03-15T05:30:12.496Z,99299.13
2023-03-15T05:30:44.134Z,99302.47
2023-03-15T05:31:15.826Z,99303.31
2023-03-15T05:31:49.081Z,99298.31
2023-03-15T05:32:26.622Z,99300.50
2023-03-15T05:32:58.632Z,99308.28
2023-03-15T05:33:31.444Z,99306.34
2023-03-15T05:34:04.417Z,99312.53
2023-03-15T05:34:36.046Z,99307.25
2023-03-15T05:35:07.952Z,99309.34
2023-03-15T05:35:39.892Z,99311.84
2023-03-15T05:36:15.360Z,99317.03
2023-03-15T05:36:47.100Z,99315.97
2023-03-15T05:37:18.759Z,99311.84
2023-03-15T05:37:50.942Z,99313.72
2023-03-15T05:38:26.534Z,99312.69
2023-03-15T05:38:58.622Z,99315.38
2023-03-15T05:39:34.594Z,99308.53
2023-03-15T05:40:10.248Z,99309.53
2023-03-15T05:40:44.717Z,99313.31
2023-03-15T05:41:18.009Z,99300.16
2023-03-15T05:41:50.259Z,99304.84
2023-03-15T05:42:30.634Z,99310.97
2023-03-15T05:43:02.246Z,99305.00
2023-03-15T05:43:33.859Z,99307.44
2023-03-15T05:44:05.479Z,99296.69
2023-03-15T05:44:37.181Z,99290.09
2023-03-15T05:45:09.292Z,99299.53
2023-03-15T05:45:41.207Z,99294.97
2023-03-15T05:46:13.327Z,99290.81
2023-03-15T05:46:45.018Z,99301.88
2023-03-15T05:47:16.755Z,99297.75
2023-03-15T05:47:48.417Z,99300.09
2023-03-15T05:48:20.071Z,99302.13
2023-03-15T05:48:51.793Z,99302.84
2023-03-15T05:49:23.503Z,99303.97
2023-03-15T05:49:55.173Z,99310.53
2023-03-15T05:50:28.274Z,99307.47
2023-03-15T05:50:59.904Z,99309.25
2023-03-15T05:51:31.543Z,99305.03
2023-03-15T05:52:03.383Z,99312.81
2023-03-15T05:52:35.023Z,99317.84
2023-03-15T05:53:06.655Z,99317.00
2023-03-15T05:53:38.300Z,99305.03
2023-03-15T05:54:10.256Z,99310.22
2023-03-15T05:54:42.012Z,99311.97
2023-03-15T05:55:13.648Z,99312.06
2023-03-15T05:55:45.306Z,99315.59
2023-03-15T05:56:16.976Z,99311.25
2023-03-15T05:56:48.619Z,99307.91
2023-03-15T05:57:20.380Z,99312.06
2023-03-15T05:57:52.193Z,99308.66
2023-03-15T05:58:23.822Z,99314.66
2023-03-15T05:58:55.473Z,99321.41
2023-03-15T05:59:27.182Z,99322.53
2023-03-15T05:59:58.835Z,99318.44
2023-03-15T06:00:30.768Z,99319.94
2023-03-15T06:01:04.190Z,99319.84
2023-03-15T06:01:35.846Z,99318.09
2023-03-15T06:02:07.650Z,99321.50
2023-03-15T06:02:39.593Z,99324.94
2023-03-15T06:03:11.250Z,99318.44
2023-03-15T06:03:43.012Z,99320.09
2023-03-15T06:04:14.752Z,99316.75
2023-03-15T06:04:46.395Z,99323.44
2023-03-15T06:05:18.028Z,99328.78
2023-03-15T06:05:49.789Z,99327.03
2023-03-15T06:06:21.418Z,99323.44
2023-03-15T06:06:53.439Z,99327.94
2023-03-15T06:07:25.122Z,99333.22
2023-03-15T06:07:56.769Z,99325.44
2023-03-15T06:08:28.444Z,99324.34
2023-03-15T06:09:00.134Z,99319.09
2023-03-15T06:09:31.800Z,99321.59
2023-03-15T06:10:04.530Z,99313.94
2023-03-15T06:10:36.419Z,99319.94
2023-03-15T06:11:08.049Z,99317.44
2023-03-15T06:11:39.720Z,99316.56
2023-03-15T06:12:11.547Z,99315.69
2023-03-15T06:12:44.847Z,99315.69
2023-03-15T06:13:18.313Z,99319.53
2023-03-15T06:13:50.096Z,99315.09
2023-03-15T06:14:21.851Z,99320.91
2023-03-15T06:14:53.766Z,99318.28
2023-03-15T06:15:26.151Z,99321.75
2023-03-15T06:15:57.783Z,99315.69
2023-03-15T06:16:29.514Z,99318.91
2023-03-15T06:17:01.224Z,99323.44
2023-03-15T06:17:32.838Z,99320.28
2023-03-15T06:18:04.989Z,99319.44
2023-03-15T06:18:36.650Z,99321.28
2023-03-15T06:19:08.341Z,99321.94
2023-03-15T06:19:40.034Z,99322.19
2023-03-15T06:20:12.233Z,99321.84
2023-03-15T06:20:44.521Z,99316.75
2023-03-15T06:21:16.149Z,99316.09
2023-03-15T06:21:48.637Z,99323.03
2023-03-15T06:22:20.675Z,99324.53
2023-03-15T06:22:52.872Z,99325.28
2023-03-15T06:23:24.635Z,99318.19
2023-03-15T06:23:56.310Z,99325.03
2023-03-15T06:24:28.008Z,99320.03
2023-03-15T06:24:59.690Z,99326.88
2023-03-15T06:25:31.426Z,99318.28
2023-03-15T06:26:03.132Z,99325.03
2023-03-15T06:26:34.913Z,99328.44
2023-03-15T06:27:06.542Z,99324.19
2023-03-15T06:27:38.555Z,99330.13
2023-03-15T06:28:10.279Z,99325.78
2023-03-15T06:28:42.023Z,99337.81